sensor_id;sensor_type;location;lat;lon;timestamp;P1;durP1;ratioP1;P2;durP2;ratioP2
9821;SDS011;4950;46.042;14.472;2022-09-09T00:00:11;15.45;;;13.93;;
9821;SDS011;4950;46.042;14.472;2022-09-09T00:02:40;15.30;;;13.90;;
9821;SDS011;4950;46.042;14.472;2022-09-09T00:05:13;15.05;;;13.75;;
9821;SDS011;4950;46.042;14.472;2022-09-09T00:07:46;16.33;;;14.23;;
9821;SDS011;4950;46.042;14.472;2022-09-09T00:10:18;15.38;;;14.00;;
9821;SDS011;4950;46.042;14.472;2022-09-09T00:12:54;15.55;;;14.05;;
9821;SDS011;4950;46.042;14.472;2022-09-09T00:15:29;13.75;;;12.55;;
9821;SDS011;4950;46.042;14.472;2022-09-09T00:18:07;16.08;;;13.73;;
9821;SDS011;4950;46.042;14.472;2022-09-09T00:20:42;14.02;;;12.82;;
9821;SDS011;4950;46.042;14.472;2022-09-09T00:23:14;14.15;;;12.88;;
9821;SDS011;4950;46.042;14.472;2022-09-09T00:25:48;15.13;;;13.63;;
9821;SDS011;4950;46.042;14.472;2022-09-09T00:28:20;13.95;;;12.73;;
9821;SDS011;4950;46.042;14.472;2022-09-09T00:30:50;13.77;;;12.45;;
9821;SDS011;4950;46.042;14.472;2022-09-09T00:33:19;14.20;;;12.80;;
9821;SDS011;4950;46.042;14.472;2022-09-09T00:35:49;13.38;;;12.13;;
9821;SDS011;4950;46.042;14.472;2022-09-09T00:38:18;14.45;;;12.93;;
9821;SDS011;4950;46.042;14.472;2022-09-09T00:40:52;13.75;;;12.55;;
9821;SDS011;4950;46.042;14.472;2022-09-09T00:43:25;13.93;;;12.60;;
9821;SDS011;4950;46.042;14.472;2022-09-09T00:46:00;14.82;;;13.43;;
9821;SDS011;4950;46.042;14.472;2022-09-09T00:48:47;15.30;;;13.90;;
9821;SDS011;4950;46.042;14.472;2022-09-09T00:51:23;14.85;;;13.45;;
9821;SDS011;4950;46.042;14.472;2022-09-09T00:54:00;14.10;;;12.90;;
9821;SDS011;4950;46.042;14.472;2022-09-09T00:56:41;14.57;;;13.32;;
9821;SDS011;4950;46.042;14.472;2022-09-09T00:59:16;14.07;;;12.73;;
9821;SDS011;4950;46.042;14.472;2022-09-09T01:01:51;14.88;;;13.32;;
9821;SDS011;4950;46.042;14.472;2022-09-09T01:04:21;15.13;;;13.77;;
9821;SDS011;4950;46.042;14.472;2022-09-09T01:06:57;13.88;;;12.73;;
9821;SDS011;4950;46.042;14.472;2022-09-09T01:09:32;14.40;;;13.13;;
9821;SDS011;4950;46.042;14.472;2022-09-09T01:12:12;15.23;;;13.85;;
9821;SDS011;4950;46.042;14.472;2022-09-09T01:14:42;14.70;;;13.30;;
9821;SDS011;4950;46.042;14.472;2022-09-09T01:17:14;15.43;;;13.85;;
9821;SDS011;4950;46.042;14.472;2022-09-09T01:19:50;14.65;;;13.32;;
9821;SDS011;4950;46.042;14.472;2022-09-09T01:22:29;15.13;;;13.52;;
9821;SDS011;4950;46.042;14.472;2022-09-09T01:25:13;15.55;;;14.18;;
9821;SDS011;4950;46.042;14.472;2022-09-09T01:27:50;15.35;;;13.75;;
9821;SDS011;4950;46.042;14.472;2022-09-09T01:30:20;16.17;;;14.57;;
9821;SDS011;4950;46.042;14.472;2022-09-09T01:32:48;17.73;;;15.93;;
9821;SDS011;4950;46.042;14.472;2022-09-09T01:35:19;17.60;;;15.82;;
9821;SDS011;4950;46.042;14.472;2022-09-09T01:37:55;19.30;;;17.40;;
9821;SDS011;4950;46.042;14.472;2022-09-09T01:40:21;20.35;;;18.30;;
9821;SDS011;4950;46.042;14.472;2022-09-09T01:42:50;19.58;;;17.70;;
9821;SDS011;4950;46.042;14.472;2022-09-09T01:45:18;21.00;;;19.00;;
9821;SDS011;4950;46.042;14.472;2022-09-09T01:47:44;23.30;;;21.00;;
9821;SDS011;4950;46.042;14.472;2022-09-09T01:50:12;25.08;;;22.67;;
9821;SDS011;4950;46.042;14.472;2022-09-09T01:52:41;26.27;;;23.67;;
9821;SDS011;4950;46.042;14.472;2022-09-09T01:55:09;25.23;;;22.67;;
9821;SDS011;4950;46.042;14.472;2022-09-09T01:57:38;27.70;;;24.80;;
9821;SDS011;4950;46.042;14.472;2022-09-09T02:00:14;28.10;;;25.10;;
9821;SDS011;4950;46.042;14.472;2022-09-09T02:02:44;30.35;;;27.23;;
9821;SDS011;4950;46.042;14.472;2022-09-09T02:05:22;27.13;;;24.33;;
9821;SDS011;4950;46.042;14.472;2022-09-09T02:07:58;26.40;;;23.70;;
9821;SDS011;4950;46.042;14.472;2022-09-09T02:10:30;28.10;;;25.17;;
9821;SDS011;4950;46.042;14.472;2022-09-09T02:13:03;29.83;;;25.98;;
9821;SDS011;4950;46.042;14.472;2022-09-09T02:15:37;26.40;;;23.52;;
9821;SDS011;4950;46.042;14.472;2022-09-09T02:18:09;29.13;;;25.98;;
9821;SDS011;4950;46.042;14.472;2022-09-09T02:20:39;25.92;;;23.30;;
9821;SDS011;4950;46.042;14.472;2022-09-09T02:23:08;26.13;;;23.35;;
9821;SDS011;4950;46.042;14.472;2022-09-09T02:25:37;26.17;;;23.48;;
9821;SDS011;4950;46.042;14.472;2022-09-09T02:28:04;29.17;;;26.02;;
9821;SDS011;4950;46.042;14.472;2022-09-09T02:30:36;25.55;;;22.92;;
9821;SDS011;4950;46.042;14.472;2022-09-09T02:33:06;28.05;;;25.15;;
9821;SDS011;4950;46.042;14.472;2022-09-09T02:35:35;29.15;;;26.00;;
9821;SDS011;4950;46.042;14.472;2022-09-09T02:38:05;27.65;;;24.70;;
9821;SDS011;4950;46.042;14.472;2022-09-09T02:40:34;27.10;;;24.17;;
9821;SDS011;4950;46.042;14.472;2022-09-09T02:43:01;25.85;;;23.15;;
9821;SDS011;4950;46.042;14.472;2022-09-09T02:45:30;27.00;;;24.25;;
9821;SDS011;4950;46.042;14.472;2022-09-09T02:48:05;27.25;;;24.45;;
9821;SDS011;4950;46.042;14.472;2022-09-09T02:50:39;25.20;;;22.67;;
9821;SDS011;4950;46.042;14.472;2022-09-09T02:53:16;27.35;;;24.50;;
9821;SDS011;4950;46.042;14.472;2022-09-09T02:55:46;27.27;;;24.48;;
9821;SDS011;4950;46.042;14.472;2022-09-09T02:58:14;23.83;;;21.42;;
9821;SDS011;4950;46.042;14.472;2022-09-09T03:00:43;17.50;;;15.75;;
9821;SDS011;4950;46.042;14.472;2022-09-09T03:03:12;15.77;;;14.18;;
9821;SDS011;4950;46.042;14.472;2022-09-09T03:05:41;16.23;;;14.50;;
9821;SDS011;4950;46.042;14.472;2022-09-09T03:08:08;15.43;;;13.95;;
9821;SDS011;4950;46.042;14.472;2022-09-09T03:10:35;15.20;;;13.77;;
9821;SDS011;4950;46.042;14.472;2022-09-09T03:13:02;14.43;;;13.13;;
9821;SDS011;4950;46.042;14.472;2022-09-09T03:15:30;16.10;;;14.52;;
9821;SDS011;4950;46.042;14.472;2022-09-09T03:17:57;15.70;;;14.10;;
9821;SDS011;4950;46.042;14.472;2022-09-09T03:20:26;13.63;;;12.27;;
9821;SDS011;4950;46.042;14.472;2022-09-09T03:22:54;15.45;;;13.95;;
9821;SDS011;4950;46.042;14.472;2022-09-09T03:25:22;16.08;;;14.68;;
9821;SDS011;4950;46.042;14.472;2022-09-09T03:27:51;16.15;;;14.57;;
9821;SDS011;4950;46.042;14.472;2022-09-09T03:30:19;15.77;;;14.25;;
9821;SDS011;4950;46.042;14.472;2022-09-09T03:32:46;17.83;;;16.20;;
9821;SDS011;4950;46.042;14.472;2022-09-09T03:35:13;17.95;;;16.05;;
9821;SDS011;4950;46.042;14.472;2022-09-09T03:37:41;19.90;;;17.90;;
9821;SDS011;4950;46.042;14.472;2022-09-09T03:40:08;20.45;;;18.35;;
9821;SDS011;4950;46.042;14.472;2022-09-09T03:42:36;20.95;;;18.77;;
9821;SDS011;4950;46.042;14.472;2022-09-09T03:45:03;22.30;;;20.08;;
9821;SDS011;4950;46.042;14.472;2022-09-09T03:47:30;24.02;;;21.58;;
9821;SDS011;4950;46.042;14.472;2022-09-09T03:49:57;21.60;;;19.35;;
9821;SDS011;4950;46.042;14.472;2022-09-09T03:52:24;19.52;;;17.73;;
9821;SDS011;4950;46.042;14.472;2022-09-09T03:54:52;23.00;;;20.60;;
9821;SDS011;4950;46.042;14.472;2022-09-09T03:57:20;21.35;;;19.35;;
9821;SDS011;4950;46.042;14.472;2022-09-09T03:59:47;21.30;;;19.05;;
9821;SDS011;4950;46.042;14.472;2022-09-09T04:02:13;18.52;;;16.80;;
9821;SDS011;4950;46.042;14.472;2022-09-09T04:04:40;19.83;;;18.02;;
9821;SDS011;4950;46.042;14.472;2022-09-09T04:07:07;19.13;;;17.13;;
9821;SDS011;4950;46.042;14.472;2022-09-09T04:09:33;20.45;;;18.35;;
9821;SDS011;4950;46.042;14.472;2022-09-09T04:12:02;19.42;;;17.60;;
9821;SDS011;4950;46.042;14.472;2022-09-09T04:14:29;20.02;;;18.05;;
9821;SDS011;4950;46.042;14.472;2022-09-09T04:16:55;18.88;;;16.98;;
9821;SDS011;4950;46.042;14.472;2022-09-09T04:19:24;19.13;;;17.42;;
9821;SDS011;4950;46.042;14.472;2022-09-09T04:21:51;18.88;;;16.98;;
9821;SDS011;4950;46.042;14.472;2022-09-09T04:24:18;18.48;;;16.73;;
9821;SDS011;4950;46.042;14.472;2022-09-09T04:26:45;20.15;;;17.90;;
9821;SDS011;4950;46.042;14.472;2022-09-09T04:29:13;18.15;;;16.33;;
9821;SDS011;4950;46.042;14.472;2022-09-09T04:31:40;18.20;;;16.40;;
9821;SDS011;4950;46.042;14.472;2022-09-09T04:34:07;17.70;;;15.90;;
9821;SDS011;4950;46.042;14.472;2022-09-09T04:36:34;17.02;;;15.43;;
9821;SDS011;4950;46.042;14.472;2022-09-09T04:39:01;17.48;;;15.68;;
9821;SDS011;4950;46.042;14.472;2022-09-09T04:41:28;16.45;;;14.75;;
9821;SDS011;4950;46.042;14.472;2022-09-09T04:43:56;16.45;;;14.85;;
9821;SDS011;4950;46.042;14.472;2022-09-09T04:46:25;16.95;;;14.88;;
9821;SDS011;4950;46.042;14.472;2022-09-09T04:48:52;16.65;;;14.88;;
9821;SDS011;4950;46.042;14.472;2022-09-09T04:51:19;16.00;;;14.50;;
9821;SDS011;4950;46.042;14.472;2022-09-09T04:53:46;15.25;;;13.65;;
9821;SDS011;4950;46.042;14.472;2022-09-09T04:56:14;14.35;;;13.05;;
9821;SDS011;4950;46.042;14.472;2022-09-09T04:58:42;13.07;;;11.68;;
9821;SDS011;4950;46.042;14.472;2022-09-09T05:01:09;13.32;;;12.13;;
9821;SDS011;4950;46.042;14.472;2022-09-09T05:03:39;13.40;;;11.93;;
9821;SDS011;4950;46.042;14.472;2022-09-09T05:06:06;12.38;;;11.10;;
9821;SDS011;4950;46.042;14.472;2022-09-09T05:08:35;12.07;;;10.95;;
9821;SDS011;4950;46.042;14.472;2022-09-09T05:11:02;13.15;;;11.25;;
9821;SDS011;4950;46.042;14.472;2022-09-09T05:13:29;10.68;;;9.57;;
9821;SDS011;4950;46.042;14.472;2022-09-09T05:15:57;10.30;;;9.30;;
9821;SDS011;4950;46.042;14.472;2022-09-09T05:18:23;10.57;;;9.57;;
9821;SDS011;4950;46.042;14.472;2022-09-09T05:20:51;10.80;;;9.07;;
9821;SDS011;4950;46.042;14.472;2022-09-09T05:23:18;9.15;;;8.25;;
9821;SDS011;4950;46.042;14.472;2022-09-09T05:25:53;8.88;;;8.00;;
9821;SDS011;4950;46.042;14.472;2022-09-09T05:28:21;8.27;;;7.25;;
9821;SDS011;4950;46.042;14.472;2022-09-09T05:30:54;8.05;;;7.25;;
9821;SDS011;4950;46.042;14.472;2022-09-09T05:33:22;7.50;;;5.68;;
9821;SDS011;4950;46.042;14.472;2022-09-09T05:35:55;7.18;;;6.35;;
9821;SDS011;4950;46.042;14.472;2022-09-09T05:38:23;7.32;;;6.63;;
9821;SDS011;4950;46.042;14.472;2022-09-09T05:40:50;7.15;;;6.20;;
9821;SDS011;4950;46.042;14.472;2022-09-09T05:43:17;7.30;;;5.95;;
9821;SDS011;4950;46.042;14.472;2022-09-09T05:45:45;6.60;;;6.00;;
9821;SDS011;4950;46.042;14.472;2022-09-09T05:48:11;6.70;;;5.32;;
9821;SDS011;4950;46.042;14.472;2022-09-09T05:50:38;7.05;;;6.07;;
9821;SDS011;4950;46.042;14.472;2022-09-09T05:53:06;6.22;;;5.60;;
9821;SDS011;4950;46.042;14.472;2022-09-09T05:55:32;7.20;;;5.70;;
9821;SDS011;4950;46.042;14.472;2022-09-09T05:57:59;7.32;;;6.15;;
9821;SDS011;4950;46.042;14.472;2022-09-09T06:00:26;5.75;;;4.82;;
9821;SDS011;4950;46.042;14.472;2022-09-09T06:02:52;6.03;;;5.40;;
9821;SDS011;4950;46.042;14.472;2022-09-09T06:05:19;7.47;;;4.60;;
9821;SDS011;4950;46.042;14.472;2022-09-09T06:07:47;9.48;;;4.60;;
9821;SDS011;4950;46.042;14.472;2022-09-09T06:10:15;6.05;;;3.83;;
9821;SDS011;4950;46.042;14.472;2022-09-09T06:12:42;4.20;;;3.75;;
9821;SDS011;4950;46.042;14.472;2022-09-09T06:15:09;9.05;;;4.22;;
9821;SDS011;4950;46.042;14.472;2022-09-09T06:17:36;5.38;;;4.10;;
9821;SDS011;4950;46.042;14.472;2022-09-09T06:20:04;6.15;;;4.20;;
9821;SDS011;4950;46.042;14.472;2022-09-09T06:22:31;5.93;;;4.32;;
9821;SDS011;4950;46.042;14.472;2022-09-09T06:24:58;5.30;;;4.30;;
9821;SDS011;4950;46.042;14.472;2022-09-09T06:27:28;8.80;;;4.70;;
9821;SDS011;4950;46.042;14.472;2022-09-09T06:29:54;5.03;;;4.20;;
9821;SDS011;4950;46.042;14.472;2022-09-09T06:32:21;5.07;;;4.30;;
9821;SDS011;4950;46.042;14.472;2022-09-09T06:34:48;5.22;;;4.57;;
9821;SDS011;4950;46.042;14.472;2022-09-09T06:37:15;4.65;;;4.05;;
9821;SDS011;4950;46.042;14.472;2022-09-09T06:39:41;5.63;;;4.53;;
9821;SDS011;4950;46.042;14.472;2022-09-09T06:42:08;6.65;;;5.20;;
9821;SDS011;4950;46.042;14.472;2022-09-09T06:44:36;5.25;;;4.18;;
9821;SDS011;4950;46.042;14.472;2022-09-09T06:47:03;7.28;;;4.97;;
9821;SDS011;4950;46.042;14.472;2022-09-09T06:49:30;6.85;;;5.35;;
9821;SDS011;4950;46.042;14.472;2022-09-09T06:51:57;6.88;;;5.85;;
9821;SDS011;4950;46.042;14.472;2022-09-09T06:54:23;6.10;;;5.13;;
9821;SDS011;4950;46.042;14.472;2022-09-09T06:56:50;6.35;;;5.20;;
9821;SDS011;4950;46.042;14.472;2022-09-09T06:59:17;6.20;;;5.10;;
9821;SDS011;4950;46.042;14.472;2022-09-09T07:01:45;6.75;;;4.57;;
9821;SDS011;4950;46.042;14.472;2022-09-09T07:04:12;6.25;;;5.03;;
9821;SDS011;4950;46.042;14.472;2022-09-09T07:06:40;7.38;;;4.90;;
9821;SDS011;4950;46.042;14.472;2022-09-09T07:09:10;5.90;;;5.00;;
9821;SDS011;4950;46.042;14.472;2022-09-09T07:11:38;6.28;;;5.30;;
9821;SDS011;4950;46.042;14.472;2022-09-09T07:14:07;5.30;;;4.78;;
9821;SDS011;4950;46.042;14.472;2022-09-09T07:16:38;6.10;;;4.30;;
9821;SDS011;4950;46.042;14.472;2022-09-09T07:19:07;6.57;;;4.38;;
9821;SDS011;4950;46.042;14.472;2022-09-09T07:21:33;5.53;;;4.35;;
9821;SDS011;4950;46.042;14.472;2022-09-09T07:24:01;6.53;;;4.47;;
9821;SDS011;4950;46.042;14.472;2022-09-09T07:26:30;4.32;;;3.90;;
9821;SDS011;4950;46.042;14.472;2022-09-09T07:28:57;5.82;;;3.88;;
9821;SDS011;4950;46.042;14.472;2022-09-09T07:31:24;4.20;;;3.00;;
9821;SDS011;4950;46.042;14.472;2022-09-09T07:33:52;4.50;;;3.55;;
9821;SDS011;4950;46.042;14.472;2022-09-09T07:36:21;4.15;;;2.92;;
9821;SDS011;4950;46.042;14.472;2022-09-09T07:38:51;3.90;;;2.88;;
9821;SDS011;4950;46.042;14.472;2022-09-09T07:41:20;3.90;;;2.60;;
9821;SDS011;4950;46.042;14.472;2022-09-09T07:43:48;3.10;;;2.80;;
9821;SDS011;4950;46.042;14.472;2022-09-09T07:46:17;2.95;;;2.63;;
9821;SDS011;4950;46.042;14.472;2022-09-09T07:48:45;3.78;;;2.35;;
9821;SDS011;4950;46.042;14.472;2022-09-09T07:51:16;3.25;;;2.67;;
9821;SDS011;4950;46.042;14.472;2022-09-09T07:53:47;3.25;;;2.80;;
9821;SDS011;4950;46.042;14.472;2022-09-09T07:56:18;5.90;;;2.72;;
9821;SDS011;4950;46.042;14.472;2022-09-09T07:58:47;5.63;;;2.63;;
9821;SDS011;4950;46.042;14.472;2022-09-09T08:01:15;3.20;;;2.70;;
9821;SDS011;4950;46.042;14.472;2022-09-09T08:03:43;3.35;;;2.58;;
9821;SDS011;4950;46.042;14.472;2022-09-09T08:06:10;3.08;;;2.78;;
9821;SDS011;4950;46.042;14.472;2022-09-09T08:08:39;3.60;;;3.25;;
9821;SDS011;4950;46.042;14.472;2022-09-09T08:11:10;3.50;;;3.20;;
9821;SDS011;4950;46.042;14.472;2022-09-09T08:13:38;5.63;;;3.88;;
9821;SDS011;4950;46.042;14.472;2022-09-09T08:16:06;4.00;;;3.30;;
9821;SDS011;4950;46.042;14.472;2022-09-09T08:18:34;3.45;;;3.15;;
9821;SDS011;4950;46.042;14.472;2022-09-09T08:21:05;6.10;;;3.50;;
9821;SDS011;4950;46.042;14.472;2022-09-09T08:23:33;3.83;;;2.90;;
9821;SDS011;4950;46.042;14.472;2022-09-09T08:26:04;5.82;;;3.50;;
9821;SDS011;4950;46.042;14.472;2022-09-09T08:28:33;3.40;;;3.10;;
9821;SDS011;4950;46.042;14.472;2022-09-09T08:31:10;3.50;;;3.22;;
9821;SDS011;4950;46.042;14.472;2022-09-09T08:33:38;4.40;;;3.38;;
9821;SDS011;4950;46.042;14.472;2022-09-09T08:36:06;3.88;;;3.58;;
9821;SDS011;4950;46.042;14.472;2022-09-09T08:38:36;5.05;;;3.28;;
9821;SDS011;4950;46.042;14.472;2022-09-09T08:41:07;6.78;;;3.25;;
9821;SDS011;4950;46.042;14.472;2022-09-09T08:43:45;4.65;;;3.30;;
9821;SDS011;4950;46.042;14.472;2022-09-09T08:46:14;4.20;;;3.00;;
9821;SDS011;4950;46.042;14.472;2022-09-09T08:48:52;4.07;;;3.08;;
9821;SDS011;4950;46.042;14.472;2022-09-09T08:51:24;4.72;;;2.88;;
9821;SDS011;4950;46.042;14.472;2022-09-09T08:53:54;3.20;;;2.80;;
9821;SDS011;4950;46.042;14.472;2022-09-09T08:56:23;3.63;;;3.15;;
9821;SDS011;4950;46.042;14.472;2022-09-09T08:58:53;3.17;;;2.63;;
9821;SDS011;4950;46.042;14.472;2022-09-09T09:01:29;4.30;;;2.97;;
9821;SDS011;4950;46.042;14.472;2022-09-09T09:04:10;3.65;;;2.90;;
9821;SDS011;4950;46.042;14.472;2022-09-09T09:06:59;6.68;;;2.92;;
9821;SDS011;4950;46.042;14.472;2022-09-09T09:09:54;4.05;;;2.80;;
9821;SDS011;4950;46.042;14.472;2022-09-09T09:12:28;4.30;;;2.83;;
9821;SDS011;4950;46.042;14.472;2022-09-09T09:14:57;5.93;;;2.67;;
9821;SDS011;4950;46.042;14.472;2022-09-09T09:17:26;3.63;;;2.67;;
9821;SDS011;4950;46.042;14.472;2022-09-09T09:19:56;2.50;;;2.30;;
9821;SDS011;4950;46.042;14.472;2022-09-09T09:22:25;6.53;;;2.55;;
9821;SDS011;4950;46.042;14.472;2022-09-09T09:25:02;3.85;;;2.40;;
9821;SDS011;4950;46.042;14.472;2022-09-09T09:27:39;3.67;;;2.40;;
9821;SDS011;4950;46.042;14.472;2022-09-09T09:30:13;3.85;;;2.30;;
9821;SDS011;4950;46.042;14.472;2022-09-09T09:32:43;2.83;;;2.60;;
9821;SDS011;4950;46.042;14.472;2022-09-09T09:35:15;4.32;;;2.72;;
9821;SDS011;4950;46.042;14.472;2022-09-09T09:37:42;5.78;;;2.70;;
9821;SDS011;4950;46.042;14.472;2022-09-09T09:40:12;7.13;;;2.40;;
9821;SDS011;4950;46.042;14.472;2022-09-09T09:42:48;2.75;;;2.17;;
9821;SDS011;4950;46.042;14.472;2022-09-09T09:45:20;4.80;;;2.38;;
9821;SDS011;4950;46.042;14.472;2022-09-09T09:47:57;3.88;;;2.25;;
9821;SDS011;4950;46.042;14.472;2022-09-09T09:50:28;2.55;;;1.95;;
9821;SDS011;4950;46.042;14.472;2022-09-09T09:52:56;4.07;;;2.40;;
9821;SDS011;4950;46.042;14.472;2022-09-09T09:55:26;4.15;;;2.10;;
9821;SDS011;4950;46.042;14.472;2022-09-09T09:58:00;2.75;;;2.42;;
9821;SDS011;4950;46.042;14.472;2022-09-09T10:00:28;3.50;;;2.38;;
9821;SDS011;4950;46.042;14.472;2022-09-09T10:02:55;2.72;;;2.05;;
9821;SDS011;4950;46.042;14.472;2022-09-09T10:05:22;4.85;;;2.10;;
9821;SDS011;4950;46.042;14.472;2022-09-09T10:08:00;3.45;;;2.00;;
9821;SDS011;4950;46.042;14.472;2022-09-09T10:10:32;5.25;;;2.05;;
9821;SDS011;4950;46.042;14.472;2022-09-09T10:13:08;2.50;;;1.88;;
9821;SDS011;4950;46.042;14.472;2022-09-09T10:15:43;4.32;;;2.05;;
9821;SDS011;4950;46.042;14.472;2022-09-09T10:18:29;3.08;;;1.88;;
9821;SDS011;4950;46.042;14.472;2022-09-09T10:21:08;2.97;;;1.98;;
9821;SDS011;4950;46.042;14.472;2022-09-09T10:23:49;4.13;;;2.08;;
9821;SDS011;4950;46.042;14.472;2022-09-09T10:26:38;2.35;;;1.90;;
9821;SDS011;4950;46.042;14.472;2022-09-09T10:29:17;3.50;;;2.05;;
9821;SDS011;4950;46.042;14.472;2022-09-09T10:31:56;2.65;;;2.13;;
9821;SDS011;4950;46.042;14.472;2022-09-09T10:34:41;2.80;;;1.70;;
9821;SDS011;4950;46.042;14.472;2022-09-09T10:37:32;3.75;;;1.80;;
9821;SDS011;4950;46.042;14.472;2022-09-09T10:40:14;1.77;;;1.60;;
9821;SDS011;4950;46.042;14.472;2022-09-09T10:42:53;2.47;;;2.05;;
9821;SDS011;4950;46.042;14.472;2022-09-09T10:45:27;3.40;;;2.25;;
9821;SDS011;4950;46.042;14.472;2022-09-09T10:48:10;5.45;;;2.30;;
9821;SDS011;4950;46.042;14.472;2022-09-09T10:50:49;4.32;;;2.05;;
9821;SDS011;4950;46.042;14.472;2022-09-09T10:53:24;3.28;;;2.22;;
9821;SDS011;4950;46.042;14.472;2022-09-09T10:56:01;2.80;;;2.30;;
9821;SDS011;4950;46.042;14.472;2022-09-09T10:58:35;4.55;;;3.00;;
9821;SDS011;4950;46.042;14.472;2022-09-09T11:01:09;3.35;;;2.50;;
9821;SDS011;4950;46.042;14.472;2022-09-09T11:03:42;4.38;;;1.90;;
9821;SDS011;4950;46.042;14.472;2022-09-09T11:06:12;4.20;;;2.15;;
9821;SDS011;4950;46.042;14.472;2022-09-09T11:08:43;3.92;;;2.40;;
9821;SDS011;4950;46.042;14.472;2022-09-09T11:11:10;3.58;;;2.20;;
9821;SDS011;4950;46.042;14.472;2022-09-09T11:13:45;4.90;;;2.58;;
9821;SDS011;4950;46.042;14.472;2022-09-09T11:16:21;3.30;;;2.30;;
9821;SDS011;4950;46.042;14.472;2022-09-09T11:18:55;6.38;;;2.50;;
9821;SDS011;4950;46.042;14.472;2022-09-09T11:21:27;4.38;;;2.30;;
9821;SDS011;4950;46.042;14.472;2022-09-09T11:23:59;5.85;;;3.00;;
9821;SDS011;4950;46.042;14.472;2022-09-09T11:26:31;4.75;;;2.47;;
9821;SDS011;4950;46.042;14.472;2022-09-09T11:32:08;6.15;;;2.70;;
9821;SDS011;4950;46.042;14.472;2022-09-09T11:34:50;4.60;;;2.63;;
9821;SDS011;4950;46.042;14.472;2022-09-09T11:40:20;4.80;;;2.42;;
9821;SDS011;4950;46.042;14.472;2022-09-09T11:43:00;4.57;;;2.55;;
9821;SDS011;4950;46.042;14.472;2022-09-09T11:45:30;3.58;;;2.60;;
9821;SDS011;4950;46.042;14.472;2022-09-09T11:48:01;3.50;;;2.22;;
9821;SDS011;4950;46.042;14.472;2022-09-09T11:50:33;2.80;;;2.28;;
9821;SDS011;4950;46.042;14.472;2022-09-09T11:53:18;5.22;;;2.60;;
9821;SDS011;4950;46.042;14.472;2022-09-09T11:55:59;4.25;;;2.72;;
9821;SDS011;4950;46.042;14.472;2022-09-09T11:58:39;3.22;;;2.75;;
9821;SDS011;4950;46.042;14.472;2022-09-09T12:01:15;5.40;;;2.55;;
9821;SDS011;4950;46.042;14.472;2022-09-09T12:03:54;4.50;;;2.42;;
9821;SDS011;4950;46.042;14.472;2022-09-09T12:06:31;3.92;;;2.60;;
9821;SDS011;4950;46.042;14.472;2022-09-09T12:09:05;6.35;;;2.72;;
9821;SDS011;4950;46.042;14.472;2022-09-09T12:11:34;3.22;;;2.50;;
9821;SDS011;4950;46.042;14.472;2022-09-09T12:14:01;3.80;;;3.15;;
9821;SDS011;4950;46.042;14.472;2022-09-09T12:16:31;3.65;;;2.80;;
9821;SDS011;4950;46.042;14.472;2022-09-09T12:19:03;4.32;;;2.92;;
9821;SDS011;4950;46.042;14.472;2022-09-09T12:21:33;6.00;;;2.80;;
9821;SDS011;4950;46.042;14.472;2022-09-09T12:24:06;4.07;;;2.97;;
9821;SDS011;4950;46.042;14.472;2022-09-09T12:26:36;5.45;;;3.10;;
9821;SDS011;4950;46.042;14.472;2022-09-09T12:29:11;3.95;;;3.13;;
9821;SDS011;4950;46.042;14.472;2022-09-09T12:31:46;5.63;;;3.28;;
9821;SDS011;4950;46.042;14.472;2022-09-09T12:34:18;4.55;;;3.38;;
9821;SDS011;4950;46.042;14.472;2022-09-09T12:36:57;5.88;;;3.15;;
9821;SDS011;4950;46.042;14.472;2022-09-09T12:39:30;5.90;;;3.28;;
9821;SDS011;4950;46.042;14.472;2022-09-09T12:42:02;5.03;;;3.72;;
9821;SDS011;4950;46.042;14.472;2022-09-09T12:44:29;4.20;;;3.78;;
9821;SDS011;4950;46.042;14.472;2022-09-09T12:47:00;4.50;;;3.50;;
9821;SDS011;4950;46.042;14.472;2022-09-09T12:49:30;5.15;;;4.07;;
9821;SDS011;4950;46.042;14.472;2022-09-09T12:52:01;5.30;;;4.05;;
9821;SDS011;4950;46.042;14.472;2022-09-09T12:54:30;4.22;;;3.88;;
9821;SDS011;4950;46.042;14.472;2022-09-09T12:56:58;6.63;;;4.85;;
9821;SDS011;4950;46.042;14.472;2022-09-09T12:59:26;4.05;;;3.50;;
9821;SDS011;4950;46.042;14.472;2022-09-09T13:02:11;4.03;;;3.22;;
9821;SDS011;4950;46.042;14.472;2022-09-09T13:04:44;4.80;;;3.45;;
9821;SDS011;4950;46.042;14.472;2022-09-09T13:07:12;4.50;;;2.92;;
9821;SDS011;4950;46.042;14.472;2022-09-09T13:09:41;3.88;;;3.00;;
9821;SDS011;4950;46.042;14.472;2022-09-09T13:12:11;3.58;;;2.72;;
9821;SDS011;4950;46.042;14.472;2022-09-09T13:14:42;3.80;;;2.88;;
9821;SDS011;4950;46.042;14.472;2022-09-09T13:17:17;2.88;;;2.67;;
9821;SDS011;4950;46.042;14.472;2022-09-09T13:19:46;4.80;;;3.40;;
9821;SDS011;4950;46.042;14.472;2022-09-09T13:22:20;3.78;;;2.72;;
9821;SDS011;4950;46.042;14.472;2022-09-09T13:24:58;3.67;;;3.20;;
9821;SDS011;4950;46.042;14.472;2022-09-09T13:27:28;4.05;;;3.08;;
9821;SDS011;4950;46.042;14.472;2022-09-09T13:29:57;3.40;;;3.10;;
9821;SDS011;4950;46.042;14.472;2022-09-09T13:32:26;3.65;;;2.78;;
9821;SDS011;4950;46.042;14.472;2022-09-09T13:34:54;3.55;;;3.25;;
9821;SDS011;4950;46.042;14.472;2022-09-09T13:37:23;3.50;;;2.92;;
9821;SDS011;4950;46.042;14.472;2022-09-09T13:39:55;3.55;;;2.80;;
9821;SDS011;4950;46.042;14.472;2022-09-09T13:42:23;2.92;;;2.70;;
9821;SDS011;4950;46.042;14.472;2022-09-09T13:44:52;3.72;;;2.72;;
9821;SDS011;4950;46.042;14.472;2022-09-09T13:47:21;4.35;;;3.95;;
9821;SDS011;4950;46.042;14.472;2022-09-09T13:49:54;5.18;;;3.20;;
9821;SDS011;4950;46.042;14.472;2022-09-09T13:52:20;3.22;;;2.92;;
9821;SDS011;4950;46.042;14.472;2022-09-09T13:54:47;5.72;;;2.92;;
9821;SDS011;4950;46.042;14.472;2022-09-09T13:57:16;3.72;;;3.30;;
9821;SDS011;4950;46.042;14.472;2022-09-09T13:59:45;3.88;;;3.20;;
9821;SDS011;4950;46.042;14.472;2022-09-09T14:02:12;4.10;;;3.30;;
9821;SDS011;4950;46.042;14.472;2022-09-09T14:04:38;4.35;;;3.30;;
9821;SDS011;4950;46.042;14.472;2022-09-09T14:07:09;3.20;;;2.90;;
9821;SDS011;4950;46.042;14.472;2022-09-09T14:09:38;5.70;;;2.88;;
9821;SDS011;4950;46.042;14.472;2022-09-09T14:12:05;4.53;;;3.50;;
9821;SDS011;4950;46.042;14.472;2022-09-09T14:14:34;4.15;;;3.38;;
9821;SDS011;4950;46.042;14.472;2022-09-09T14:17:01;3.97;;;3.05;;
9821;SDS011;4950;46.042;14.472;2022-09-09T14:19:28;4.20;;;2.90;;
9821;SDS011;4950;46.042;14.472;2022-09-09T14:21:56;3.88;;;3.42;;
9821;SDS011;4950;46.042;14.472;2022-09-09T14:24:24;4.32;;;2.85;;
9821;SDS011;4950;46.042;14.472;2022-09-09T14:26:51;3.65;;;3.35;;
9821;SDS011;4950;46.042;14.472;2022-09-09T14:29:18;3.65;;;2.85;;
9821;SDS011;4950;46.042;14.472;2022-09-09T14:31:44;3.55;;;3.15;;
9821;SDS011;4950;46.042;14.472;2022-09-09T14:34:11;3.22;;;2.70;;
9821;SDS011;4950;46.042;14.472;2022-09-09T14:36:39;4.22;;;3.05;;
9821;SDS011;4950;46.042;14.472;2022-09-09T14:39:06;3.92;;;2.92;;
9821;SDS011;4950;46.042;14.472;2022-09-09T14:41:34;3.30;;;2.88;;
9821;SDS011;4950;46.042;14.472;2022-09-09T14:44:01;3.50;;;3.20;;
9821;SDS011;4950;46.042;14.472;2022-09-09T14:46:28;3.30;;;3.00;;
9821;SDS011;4950;46.042;14.472;2022-09-09T14:48:54;4.28;;;2.90;;
9821;SDS011;4950;46.042;14.472;2022-09-09T14:51:22;3.83;;;2.85;;
9821;SDS011;4950;46.042;14.472;2022-09-09T14:53:50;3.45;;;3.15;;
9821;SDS011;4950;46.042;14.472;2022-09-09T14:56:19;3.60;;;2.90;;
9821;SDS011;4950;46.042;14.472;2022-09-09T14:58:49;3.03;;;2.20;;
9821;SDS011;4950;46.042;14.472;2022-09-09T15:01:18;4.75;;;2.50;;
9821;SDS011;4950;46.042;14.472;2022-09-09T15:03:48;3.20;;;2.90;;
9821;SDS011;4950;46.042;14.472;2022-09-09T15:06:17;4.70;;;2.78;;
9821;SDS011;4950;46.042;14.472;2022-09-09T15:08:45;2.80;;;2.58;;
9821;SDS011;4950;46.042;14.472;2022-09-09T15:11:13;4.95;;;3.00;;
9821;SDS011;4950;46.042;14.472;2022-09-09T15:13:41;3.65;;;2.33;;
9821;SDS011;4950;46.042;14.472;2022-09-09T15:16:10;2.92;;;2.28;;
9821;SDS011;4950;46.042;14.472;2022-09-09T15:18:39;2.97;;;2.53;;